createdAt,value
2023-03-05T00:12:36.842Z,5.92
2023-03-05T00:27:38.469Z,6.13
2023-03-05T00:42:40.143Z,4.58
2023-03-05T00:57:41.799Z,6.82
2023-03-05T01:12:43.482Z,6.92
2023-03-05T01:27:45.900Z,7.45
2023-03-05T01:42:49.546Z,4.95
2023-03-05T01:58:01.098Z,7.41
2023-03-05T02:13:07.021Z,5.05
2023-03-05T02:28:18.600Z,7.44
2023-03-05T02:43:20.388Z,7.13
2023-03-05T02:58:22.098Z,6.80
2023-03-05T03:13:25.397Z,6.69
2023-03-05T03:28:27.110Z,6.45
2023-03-05T03:43:28.829Z,5.76
2023-03-05T03:58:30.679Z,5.78
2023-03-05T04:13:32.859Z,5.62
2023-03-05T04:28:34.559Z,6.51
2023-03-05T04:43:36.284Z,4.99
2023-03-05T04:58:38.130Z,5.41
2023-03-05T05:13:39.906Z,6.08
2023-03-05T05:28:43.695Z,5.82
2023-03-05T05:43:46.128Z,6.98
2023-03-05T05:58:48.832Z,6.24
2023-03-05T06:13:51.067Z,5.64
2023-03-05T06:28:53.533Z,7.28
2023-03-05T06:43:55.826Z,7.36
2023-03-05T06:58:57.555Z,7.00
2023-03-05T07:13:59.444Z,8.17
2023-03-05T07:29:02.020Z,6.54
2023-03-05T07:44:03.742Z,7.83
2023-03-05T07:59:08.000Z,8.62
2023-03-05T08:14:09.992Z,7.45
2023-03-05T08:29:11.907Z,8.14
2023-03-05T08:44:13.597Z,8.79
2023-03-05T08:59:15.247Z,7.96
2023-03-05T09:14:16.877Z,8.04
2023-03-05T09:29:18.567Z,8.72
2023-03-05T09:44:23.679Z,9.28
2023-03-05T09:59:36.046Z,9.21
2023-03-05T10:14:40.653Z,10.12
2023-03-05T10:29:57.267Z,10.67
2023-03-05T10:45:01.008Z,10.26
2023-03-05T11:00:05.568Z,9.68
2023-03-05T11:15:26.459Z,9.76
2023-03-05T11:30:32.561Z,10.07
2023-03-05T11:45:35.449Z,8.90
2023-03-05T12:00:41.590Z,9.64
2023-03-05T12:15:52.438Z,9.91
2023-03-05T12:30:58.366Z,10.00
2023-03-05T12:46:29.053Z,10.14
2023-03-05T13:01:45.871Z,9.82
2023-03-05T13:16:48.416Z,9.12
2023-03-05T13:31:54.533Z,9.86
2023-03-05T13:47:08.231Z,9.10
2023-03-05T14:02:19.629Z,9.35
2023-03-05T14:17:45.097Z,9.76
2023-03-05T14:32:47.315Z,8.53
2023-03-05T14:47:50.723Z,8.66
2023-03-05T15:02:52.696Z,8.69
2023-03-05T15:17:57.528Z,8.53
2023-03-05T15:33:02.933Z,9.31
2023-03-05T15:48:05.144Z,9.11
2023-03-05T16:03:06.882Z,8.20
2023-03-05T16:18:13.304Z,7.55
2023-03-05T16:33:15.062Z,8.20
2023-03-05T16:48:16.817Z,7.95
2023-03-05T17:03:18.901Z,8.27
2023-03-05T17:18:20.549Z,6.17
2023-03-05T17:33:22.255Z,6.66
2023-03-05T17:48:23.933Z,6.67
2023-03-05T18:03:26.902Z,7.30
2023-03-05T18:18:28.608Z,4.83
2023-03-05T18:33:30.523Z,6.99
2023-03-05T18:48:32.426Z,5.42
2023-03-05T19:03:34.141Z,4.87
2023-03-05T19:19:11.847Z,4.09
2023-03-05T19:34:13.843Z,4.53
2023-03-05T19:49:17.493Z,6.50
2023-03-05T20:04:22.827Z,6.37
2023-03-05T20:19:24.795Z,4.36
2023-03-05T20:34:27.130Z,4.22
2023-03-05T20:49:28.891Z,5.53
2023-03-05T21:04:30.646Z,5.07
2023-03-05T21:19:33.740Z,5.14
2023-03-05T21:34:35.457Z,4.09
2023-03-05T21:49:37.387Z,4.70
2023-03-05T22:04:39.202Z,4.15
2023-03-05T22:19:41.078Z,5.01
2023-03-05T22:34:42.835Z,5.33
2023-03-05T22:49:46.855Z,3.43
2023-03-05T23:04:50.205Z,4.59
2023-03-05T23:19:51.958Z,3.80
2023-03-05T23:34:56.316Z,4.71
2023-03-05T23:49:58.089Z,2.50
